»·PEaware :: WAT380 KBZN-KCPR

WAT380 :: KBZN-KCPR

FLIGHT INFORMATION

Flight Status: Arrived
Operator:
Walker Air Transport
More flights by this operator :: More flights under this callsign
Pilot: Spencer M. (27733)
Aircraft: PILATUS PC-12 EAGLE
(PC12)
More flights by this aircraft type
Origin: KBZN Gallatin
United States
Destination: KCPR Natrona Co Intl
United States
More flights between these airports :: More routes between these airports
Route: BOBKT4 BOY V298 DDY
File this flight plan on PilotEdge
Remarks:
Altitude:
(Current/Filed)
21,000ft
Speed:
(Current/Filed)
260kts
Departed: 15-Mar-21 08:56 PM
Arrived: 15-Mar-21 10:13 PM
Distance/Time
Traveled:
265nm/1:16
Distance/Time
To Go:
Arrived

Flight Plot

Page will automatically refresh every two minutes.

Flight plan parsing failed; only flown route is shown


Map Options




Map Legend


Flown Route
Filed Route
Departure Airport
Arrival Airport
Navaid (VOR, NDB)
Fix

Horizontal Profiles

Position Reports

Time Latitude Longitude Heading Altitude Ground
Speed
15-Mar-21 20:41 45.772873 -111.152011 318 4463ft 0kts
15-Mar-21 20:42 45.772873 -111.152011 318 4463ft 0kts
15-Mar-21 20:43 45.772873 -111.152011 318 4463ft 0kts
15-Mar-21 20:44 45.772873 -111.152011 318 4463ft 0kts
15-Mar-21 20:45 45.772873 -111.152011 318 4463ft 0kts
15-Mar-21 20:46 45.772873 -111.152011 318 4463ft 0kts
15-Mar-21 20:47 45.772873 -111.152011 318 4463ft 0kts
15-Mar-21 20:48 45.772873 -111.152011 318 4463ft 0kts
15-Mar-21 20:49 45.773428 -111.151846 62 4462ft 5kts
15-Mar-21 20:50 45.772221 -111.148578 135 4464ft 14kts
15-Mar-21 20:51 45.769202 -111.144164 87 4467ft 10kts
15-Mar-21 20:52 45.769896 -111.143045 42 4466ft 0kts
15-Mar-21 20:53 45.769896 -111.143045 42 4466ft 0kts
15-Mar-21 20:54 45.770025 -111.142858 48 4466ft 5kts
15-Mar-21 20:55 45.772323 -111.144661 315 4461ft 68kts
15-Mar-21 20:56 45.795108 -111.177905 316 5174ft 129kts
15-Mar-21 20:57 45.789541 -111.231130 234 6699ft 184kts
15-Mar-21 20:58 45.747176 -111.275017 177 8331ft 209kts
15-Mar-21 20:59 45.695131 -111.239012 147 10139ft 212kts
15-Mar-21 21:00 45.644279 -111.197555 142 11938ft 209kts
15-Mar-21 21:01 45.627337 -111.127465 82 13752ft 194kts
15-Mar-21 21:02 45.632133 -111.050642 82 15547ft 196kts
15-Mar-21 21:03 45.636663 -110.972763 82 17339ft 199kts
15-Mar-21 21:04 45.641160 -110.893713 83 19137ft 201kts
15-Mar-21 21:05 45.643305 -110.814687 103 20841ft 205kts
15-Mar-21 21:06 45.595950 -110.753502 145 20901ft 256kts
15-Mar-21 21:07 45.534633 -110.696327 146 20899ft 268kts
15-Mar-21 21:08 45.471940 -110.637995 146 20899ft 271kts
15-Mar-21 21:09 45.408613 -110.579227 146 20899ft 272kts
15-Mar-21 21:10 45.345039 -110.520387 146 20899ft 273kts
15-Mar-21 21:11 45.281541 -110.461776 146 20899ft 273kts
15-Mar-21 21:12 45.217986 -110.403274 146 20899ft 272kts
15-Mar-21 21:13 45.154529 -110.345017 146 20899ft 272kts
15-Mar-21 21:14 45.091083 -110.286934 146 20899ft 272kts
15-Mar-21 21:15 45.027439 -110.228813 146 20922ft 272kts
15-Mar-21 21:16 44.964048 -110.171098 147 20918ft 272kts
15-Mar-21 21:17 44.905853 -110.103669 137 20916ft 271kts
15-Mar-21 21:18 44.850247 -110.031853 137 20912ft 271kts
15-Mar-21 21:20 44.794508 -109.959993 136 20910ft 271kts
15-Mar-21 21:21 44.738848 -109.888430 137 20908ft 272kts
15-Mar-21 21:22 44.682950 -109.816772 137 20908ft 272kts
15-Mar-21 21:23 44.626996 -109.745236 137 20908ft 272kts
15-Mar-21 21:24 44.570900 -109.673705 137 20908ft 272kts
15-Mar-21 21:25 44.514914 -109.602513 137 20908ft 272kts
15-Mar-21 21:26 44.458935 -109.531520 137 20906ft 272kts
15-Mar-21 21:27 44.402666 -109.460355 137 20900ft 273kts
15-Mar-21 21:28 44.346350 -109.389326 137 20894ft 273kts
15-Mar-21 21:29 44.289820 -109.318214 137 20890ft 273kts
15-Mar-21 21:30 44.233451 -109.247502 137 20890ft 274kts
15-Mar-21 21:31 44.176741 -109.176549 137 20891ft 274kts
15-Mar-21 21:32 44.119909 -109.105639 137 20894ft 275kts
15-Mar-21 21:33 44.063055 -109.034892 137 20896ft 276kts
15-Mar-21 21:34 44.005713 -108.963732 137 20899ft 277kts
15-Mar-21 21:35 43.948173 -108.892502 137 20900ft 279kts
15-Mar-21 21:36 43.889019 -108.819505 137 20899ft 280kts
15-Mar-21 21:37 43.830720 -108.747746 137 20898ft 281kts
15-Mar-21 21:38 43.772202 -108.675917 137 20888ft 282kts
15-Mar-21 21:39 43.713412 -108.603957 137 20878ft 283kts
15-Mar-21 21:40 43.654516 -108.532052 137 20871ft 283kts
15-Mar-21 21:41 43.595359 -108.460034 137 20872ft 283kts
15-Mar-21 21:41 43.546125 -108.400245 137 20872ft 284kts
15-Mar-21 21:43 43.477134 -108.316352 133 20871ft 283kts
15-Mar-21 21:44 43.448520 -108.218569 101 20870ft 279kts
15-Mar-21 21:45 43.430508 -108.114785 100 20859ft 279kts
15-Mar-21 21:46 43.412294 -108.011033 101 20847ft 280kts
15-Mar-21 21:46 43.396901 -107.924173 100 20845ft 281kts
15-Mar-21 21:47 43.378317 -107.820058 100 20843ft 277kts
15-Mar-21 21:49 43.358332 -107.708639 99 20843ft 244kts
15-Mar-21 21:50 43.342529 -107.620260 99 20844ft 233kts
15-Mar-21 21:51 43.327043 -107.534561 99 20845ft 230kts
15-Mar-21 21:51 43.313012 -107.457802 100 19742ft 266kts
15-Mar-21 21:52 43.295524 -107.363531 100 18370ft 283kts
15-Mar-21 21:53 43.275937 -107.257464 100 16875ft 289kts
15-Mar-21 21:54 43.255406 -107.146710 100 15326ft 289kts
15-Mar-21 21:55 43.234375 -107.033782 100 13740ft 286kts
15-Mar-21 21:56 43.212619 -106.916576 100 12082ft 284kts
15-Mar-21 21:57 43.191658 -106.805239 100 10992ft 262kts
15-Mar-21 21:58 43.173511 -106.709333 100 10879ft 244kts
15-Mar-21 21:59 43.155974 -106.617072 101 10554ft 246kts
15-Mar-21 22:00 43.137844 -106.522220 101 10050ft 248kts
15-Mar-21 22:01 43.119424 -106.426579 102 9311ft 238kts
15-Mar-21 22:02 43.103307 -106.341922 103 8989ft 204kts
15-Mar-21 22:03 43.082481 -106.270924 140 8847ft 198kts
15-Mar-21 22:04 43.036702 -106.231918 149 8393ft 184kts
15-Mar-21 22:05 42.989949 -106.198461 173 8383ft 187kts
15-Mar-21 22:06 42.937000 -106.197510 192 7790ft 178kts
15-Mar-21 22:07 42.911634 -106.242280 269 7425ft 163kts
15-Mar-21 22:08 42.910924 -106.302853 269 7011ft 132kts
15-Mar-21 22:09 42.910410 -106.348307 268 6672ft 117kts
15-Mar-21 22:10 42.909707 -106.389812 269 6003ft 101kts
15-Mar-21 22:11 42.909270 -106.429463 269 5637ft 104kts
15-Mar-21 22:12 42.908744 -106.464264 269 5336ft 39kts
15-Mar-21 22:13 42.907897 -106.469625 185 5338ft 8kts
15-Mar-21 22:14 42.906798 -106.469003 130 5335ft 0kts
15-Mar-21 22:15 42.905568 -106.467055 125 5333ft 11kts
15-Mar-21 22:16 42.902912 -106.462667 130 5328ft 17kts
15-Mar-21 22:17 42.901094 -106.460020 133 5325ft 0kts

Navigation Log

Ident Type
Flight plan parsing failed, navigation log unavailable